M I D A S
Marine Information and Data Acquisition System
Tripno 1360 of the Zeeleeuw from 2007-07-16 04:15:27 to 2007-07-16 19:40:56
Back to CruiseResearch ActivitiesStationsMapUnderway DataData graphs

EquipmentUnitsComment
TimeDGPSUTC
LatitudeDGPSDM.mWGS84
LongitudeDGPSDM.mWGS84
HeadingGyrodeg 
SOGDGPSknotsSpeed over ground
COGDGPSdegCourse over ground
DepthEcho soundermeters200 kHz
Missing or incorrect values are displayed as -999
Navigation data collected by the RV Zeeleeuw from 2007-07-16 04:17:10 to 2007-07-16 19:54:22
                                                                                    Next 1000 lines
Time Latitude Longitude Heading SOG COG Depth
2007-07-16 04:17:20 51°13.598 2°56.092 111 0.7 285 9.4
2007-07-16 04:17:25 51°13.598 2°56.09 110.6 1 287 9.5
2007-07-16 04:17:30 51°13.599 2°56.087 110.4 1.3 288 9.5
2007-07-16 04:17:35 51°13.599 2°56.084 110.4 1.6 289 9.4
2007-07-16 04:17:40 51°13.6 2°56.08 110.9 1.9 290 9.6
2007-07-16 04:17:45 51°13.601 2°56.076 111.6 2.1 291 9.8
2007-07-16 04:17:51 51°13.603 2°56.07 112.5 2.4 293 -999
2007-07-16 04:17:56 51°13.604 2°56.065 113.6 2.6 293 -999
2007-07-16 04:18:01 51°13.606 2°56.059 114.2 2.8 293 -999
2007-07-16 04:18:05 51°13.607 2°56.055 114.5 2.9 294 -999
2007-07-16 04:18:10 51°13.609 2°56.048 114.8 3.1 294 -999
2007-07-16 04:18:16 51°13.611 2°56.041 115.4 3.2 295 -999
2007-07-16 04:18:21 51°13.613 2°56.034 116 3.4 295 -999
2007-07-16 04:18:26 51°13.615 2°56.027 116.8 3.5 295 -999
2007-07-16 04:18:30 51°13.617 2°56.021 117.1 3.7 296 -999
2007-07-16 04:18:35 51°13.619 2°56.013 117.5 3.8 295 -999
2007-07-16 04:18:41 51°13.622 2°56.004 118.2 3.9 296 -999
2007-07-16 04:18:46 51°13.624 2°55.996 118.6 4 296 -999
2007-07-16 04:18:50 51°13.626 2°55.99 119 4 297 -999
2007-07-16 04:18:55 51°13.629 2°55.982 119.6 4.1 297 -999
2007-07-16 04:19:00 51°13.632 2°55.974 120.1 4.2 298 -999
2007-07-16 04:19:06 51°13.635 2°55.964 120.6 4.3 298 -999
2007-07-16 04:19:11 51°13.638 2°55.955 121.1 4.3 298 -999
2007-07-16 04:19:16 51°13.641 2°55.947 121.5 4.4 299 -999
2007-07-16 04:19:20 51°13.643 2°55.94 121.9 4.4 299 -999
2007-07-16 04:19:25 51°13.646 2°55.931 122.3 4.5 299 -999
2007-07-16 04:19:31 51°13.65 2°55.921 122.7 4.5 300 -999
2007-07-16 04:19:36 51°13.653 2°55.912 123.3 4.6 301 -999
2007-07-16 04:19:41 51°13.656 2°55.904 124.1 4.6 301 -999
2007-07-16 04:19:45 51°13.659 2°55.896 125.2 4.6 303 -999
2007-07-16 04:19:51 51°13.663 2°55.886 126 4.6 303 -999
2007-07-16 04:19:56 51°13.667 2°55.878 127 4.6 304 -999
2007-07-16 04:20:01 51°13.671 2°55.869 127.5 4.5 304 -999
2007-07-16 04:20:05 51°13.674 2°55.863 127.8 4.5 306 -999
2007-07-16 04:20:10 51°13.677 2°55.855 128.2 4.5 306 -999
2007-07-16 04:20:16 51°13.682 2°55.845 128.2 4.6 306 -999
2007-07-16 04:20:21 51°13.686 2°55.837 128.2 4.6 306 -999
2007-07-16 04:20:26 51°13.689 2°55.828 127.8 4.7 306 -999
2007-07-16 04:20:30 51°13.692 2°55.821 127.2 4.8 306 -999
2007-07-16 04:20:36 51°13.697 2°55.811 126.3 4.8 305 -999
2007-07-16 04:20:41 51°13.701 2°55.803 125.4 4.5 304 -999
2007-07-16 04:20:46 51°13.704 2°55.795 124.4 4.2 304 -999
2007-07-16 04:20:50 51°13.706 2°55.789 123.3 4.1 303 -999
2007-07-16 04:20:55 51°13.709 2°55.781 122 4 302 -999
2007-07-16 04:21:01 51°13.713 2°55.772 120.6 4 300 -999
2007-07-16 04:21:06 51°13.715 2°55.764 119.1 4.1 300 13.5
2007-07-16 04:21:10 51°13.718 2°55.758 118.2 4 298 14.1
2007-07-16 04:21:15 51°13.72 2°55.75 116.5 3.8 297 -999
2007-07-16 04:21:21 51°13.723 2°55.742 114.2 3.6 296 -999
2007-07-16 04:21:26 51°13.725 2°55.735 112.8 3.4 295 -999
2007-07-16 04:21:30 51°13.726 2°55.73 111.1 3 294 -999
2007-07-16 04:21:36 51°13.728 2°55.724 109.3 2.7 293 -999
2007-07-16 04:21:40 51°13.728 2°55.72 107.2 2.2 290 13.4
2007-07-16 04:21:46 51°13.73 2°55.716 104.9 1.6 294 13
2007-07-16 04:21:50 51°13.73 2°55.714 103.1 1.1 293 12.7
2007-07-16 04:21:55 51°13.731 2°55.712 99.4 0.8 307 12.5
2007-07-16 04:22:00 51°13.731 2°55.712 95.5 0.4 346 12.5
2007-07-16 04:22:05 51°13.732 2°55.712 91.1 0.5 30 12.5
2007-07-16 04:22:10 51°13.732 2°55.713 86.1 0.8 49 12.6
2007-07-16 04:22:15 51°13.733 2°55.715 80.5 1.1 49 12.8
2007-07-16 04:22:20 51°13.734 2°55.717 74.8 1.3 51 12.9
2007-07-16 04:22:25 51°13.736 2°55.72 68.9 1.6 48 12.8
2007-07-16 04:22:30 51°13.737 2°55.723 63.1 1.7 46 12.8
2007-07-16 04:22:35 51°13.739 2°55.726 57.3 1.9 42 12.7
2007-07-16 04:22:40 51°13.741 2°55.728 51.4 1.7 36 12.9
2007-07-16 04:22:45 51°13.743 2°55.73 46.4 1.3 36 12.8
2007-07-16 04:22:50 51°13.744 2°55.731 43 0.9 37 12.5
2007-07-16 04:22:55 51°13.745 2°55.731 40 0.3 24 12.3
2007-07-16 04:23:00 51°13.744 2°55.731 37 0.2 212 12.2
2007-07-16 04:23:06 51°13.743 2°55.73 34.5 0.7 211 12.3
2007-07-16 04:23:10 51°13.742 2°55.729 32.9 1 209 12.4
2007-07-16 04:23:15 51°13.741 2°55.728 32.1 1.4 210 12.5
2007-07-16 04:23:20 51°13.738 2°55.726 31.3 2 209 12.8
2007-07-16 04:23:26 51°13.735 2°55.723 30.6 2.1 209 -999
2007-07-16 04:23:30 51°13.733 2°55.721 29.5 2 209 -999
2007-07-16 04:23:35 51°13.731 2°55.719 28.9 1.8 209 -999
2007-07-16 04:23:40 51°13.729 2°55.717 28.3 1.5 209 -999
2007-07-16 04:23:46 51°13.728 2°55.716 27.3 0.9 209 -999
2007-07-16 04:23:51 51°13.728 2°55.715 25.4 0.4 222 -999
2007-07-16 04:23:56 51°13.728 2°55.715 22.2 0.3 346 -999
2007-07-16 04:24:00 51°13.729 2°55.715 17.4 0.9 358 -999
2007-07-16 04:24:05 51°13.73 2°55.716 11.7 1.3 358 -999
2007-07-16 04:24:11 51°13.733 2°55.715 5.1 1.7 353 -999
2007-07-16 04:24:16 51°13.736 2°55.714 358.3 2.1 349 -999
2007-07-16 04:24:21 51°13.739 2°55.713 351.8 2.4 345 -999
2007-07-16 04:24:25 51°13.742 2°55.711 345.8 2.8 339 -999
2007-07-16 04:24:31 51°13.747 2°55.708 341.8 3.1 338 -999
2007-07-16 04:24:36 51°13.751 2°55.705 339.6 3.6 336 12.6
2007-07-16 04:24:40 51°13.755 2°55.702 338.3 4 335 12.4
2007-07-16 04:24:45 51°13.761 2°55.697 337.6 4.6 333 12.3
2007-07-16 04:24:50 51°13.767 2°55.692 336.7 5 333 12.1
2007-07-16 04:24:55 51°13.774 2°55.686 335.9 5.7 332 12.2
2007-07-16 04:25:00 51°13.781 2°55.68 335.4 6.1 332 12.1
2007-07-16 04:25:06 51°13.791 2°55.672 335.2 6.5 332 12.1
2007-07-16 04:25:10 51°13.797 2°55.667 335.1 6.8 332 12.1
2007-07-16 04:25:15 51°13.806 2°55.659 335 7.2 332 12.1
2007-07-16 04:25:20 51°13.815 2°55.652 335.3 7.4 333 12.2
2007-07-16 04:25:26 51°13.827 2°55.643 335.9 7.7 333 12.3
2007-07-16 04:25:30 51°13.834 2°55.636 336.1 7.9 333 12.2
2007-07-16 04:25:35 51°13.844 2°55.628 336.1 8 334 12.2
2007-07-16 04:25:41 51°13.857 2°55.619 336.7 8.2 334 12.1
2007-07-16 04:25:46 51°13.867 2°55.611 337.4 8.4 334 12
2007-07-16 04:25:50 51°13.876 2°55.604 337.4 8.5 334 12
2007-07-16 04:25:55 51°13.886 2°55.596 337.5 8.5 335 11.9
2007-07-16 04:26:01 51°13.899 2°55.586 338.3 8.7 335 12
2007-07-16 04:26:06 51°13.91 2°55.578 338.5 8.8 335 12.1
2007-07-16 04:26:10 51°13.919 2°55.572 338.5 8.8 335 12.1
2007-07-16 04:26:15 51°13.93 2°55.564 338.5 8.8 335 12.3
2007-07-16 04:26:20 51°13.941 2°55.556 338.8 8.9 335 12
2007-07-16 04:26:26 51°13.955 2°55.546 338.8 8.8 336 12.1
2007-07-16 04:26:30 51°13.963 2°55.539 338.9 8.5 336 12
2007-07-16 04:26:35 51°13.974 2°55.532 339.4 8.2 337 12
2007-07-16 04:26:41 51°13.986 2°55.524 339.8 7.9 337 -999
2007-07-16 04:26:45 51°13.994 2°55.519 340 7.7 337 12.1
2007-07-16 04:26:50 51°14.004 2°55.512 340.2 7.5 337 12
2007-07-16 04:26:55 51°14.013 2°55.506 340.2 7.3 337 12
2007-07-16 04:27:00 51°14.022 2°55.5 340.2 7.1 337 11.9
2007-07-16 04:27:05 51°14.031 2°55.494 340.4 7 337 11.9
2007-07-16 04:27:10 51°14.04 2°55.488 340.4 7.2 337 11.9
2007-07-16 04:27:15 51°14.05 2°55.481 340.4 7.6 337 12
2007-07-16 04:27:21 51°14.062 2°55.473 340.3 8 336 12
2007-07-16 04:27:26 51°14.072 2°55.465 339.8 8.3 337 12
2007-07-16 04:27:30 51°14.081 2°55.459 339.7 8.5 336 11.9
2007-07-16 04:27:35 51°14.092 2°55.451 339.8 8.8 336 11.8
2007-07-16 04:27:40 51°14.103 2°55.443 339.8 9 335 12
2007-07-16 04:27:46 51°14.117 2°55.432 339.6 9.2 335 12
2007-07-16 04:27:50 51°14.127 2°55.425 338.9 9.3 334 11.9
2007-07-16 04:27:55 51°14.138 2°55.416 338.4 9.5 333 11.9
2007-07-16 04:28:01 51°14.152 2°55.404 337.6 9.6 333 11.9
2007-07-16 04:28:06 51°14.164 2°55.394 336.7 9.6 332 11.9
2007-07-16 04:28:11 51°14.176 2°55.383 335.3 9.7 330 -999
2007-07-16 04:28:15 51°14.185 2°55.375 334.2 9.7 330 12
2007-07-16 04:28:20 51°14.197 2°55.363 333.1 9.8 328 12
2007-07-16 04:28:26 51°14.21 2°55.349 331.7 9.9 326 12
2007-07-16 04:28:31 51°14.221 2°55.336 329.4 9.8 324 -999
2007-07-16 04:28:35 51°14.23 2°55.325 328 9.9 323 11.9
2007-07-16 04:28:40 51°14.241 2°55.311 326.6 9.9 321 12
2007-07-16 04:28:45 51°14.251 2°55.297 324.4 10 318 11.9
2007-07-16 04:28:50 51°14.261 2°55.281 322.2 10.1 316 11.9
2007-07-16 04:28:55 51°14.271 2°55.265 320.5 10.2 313 11.8
2007-07-16 04:29:00 51°14.28 2°55.248 317.9 10.3 312 11.9
2007-07-16 04:29:05 51°14.29 2°55.231 316.3 10.3 310 11.9
2007-07-16 04:29:10 51°14.299 2°55.213 314.2 10.4 309 11.9
2007-07-16 04:29:15 51°14.308 2°55.194 312.8 10.5 308 12
2007-07-16 04:29:20 51°14.317 2°55.176 311.8 10.6 308 12.1
2007-07-16 04:29:25 51°14.326 2°55.157 311.2 10.6 307 11.8
2007-07-16 04:29:30 51°14.335 2°55.139 310.6 10.7 309 11.8
2007-07-16 04:29:35 51°14.344 2°55.121 311.3 10.7 310 11.8
2007-07-16 04:29:40 51°14.354 2°55.103 312.8 10.7 312 11.9
2007-07-16 04:29:46 51°14.367 2°55.082 315 10.9 315 11.7
2007-07-16 04:29:50 51°14.376 2°55.068 317.3 11.1 315 11.7
2007-07-16 04:29:55 51°14.387 2°55.051 318.8 11.4 316 11.8
2007-07-16 04:30:00 51°14.399 2°55.033 319.9 11.8 317 11.7
2007-07-16 04:30:06 51°14.414 2°55.012 320.7 12.1 318 11.6
2007-07-16 04:30:10 51°14.425 2°54.998 321.6 12.4 320 11.4
2007-07-16 04:30:15 51°14.439 2°54.98 323.4 12.6 321 11.5
2007-07-16 04:30:21 51°14.456 2°54.961 325.5 12.9 325 11.3
2007-07-16 04:30:26 51°14.471 2°54.945 327.9 13 327 11.1
2007-07-16 04:30:30 51°14.484 2°54.933 330.4 13.1 329 10.8
2007-07-16 04:30:35 51°14.5 2°54.919 333.1 13.1 331 10.5
2007-07-16 04:30:40 51°14.516 2°54.905 335.2 13.2 331 10.5
2007-07-16 04:30:46 51°14.535 2°54.888 335.9 13.2 332 10.4
2007-07-16 04:30:50 51°14.548 2°54.877 336.4 13.3 331 10.4
2007-07-16 04:30:55 51°14.564 2°54.863 336.4 13.3 331 10.3
2007-07-16 04:31:00 51°14.58 2°54.848 336 13.4 330 10.2
2007-07-16 04:31:06 51°14.599 2°54.83 335.3 13.4 329 10.2
2007-07-16 04:31:10 51°14.612 2°54.818 334.4 13.3 329 10.2
2007-07-16 04:31:15 51°14.628 2°54.803 333.7 13.4 329 10.1
2007-07-16 04:31:20 51°14.644 2°54.787 333 13.4 328 10.1
2007-07-16 04:31:25 51°14.66 2°54.771 332.4 13.4 328 10.1
2007-07-16 04:31:30 51°14.675 2°54.756 332.1 13.4 328 10.2
2007-07-16 04:31:35 51°14.691 2°54.74 331.9 13.4 329 10.3
2007-07-16 04:31:40 51°14.707 2°54.725 332 13.4 328 10.4
2007-07-16 04:31:46 51°14.726 2°54.706 332.3 13.4 329 10.5
2007-07-16 04:31:50 51°14.739 2°54.694 332.3 13.4 329 10.3
2007-07-16 04:31:55 51°14.755 2°54.68 332.6 13.3 331 10.3
2007-07-16 04:32:00 51°14.771 2°54.665 333.2 13.3 330 10.3
2007-07-16 04:32:06 51°14.79 2°54.648 333.8 13.3 331 10.5
2007-07-16 04:32:10 51°14.803 2°54.636 333.8 13.3 330 10.4
2007-07-16 04:32:15 51°14.819 2°54.621 333.8 13.3 330 10.4
2007-07-16 04:32:21 51°14.838 2°54.603 333.5 13.3 329 10.4
2007-07-16 04:32:26 51°14.854 2°54.588 333.1 13.3 330 10.4
2007-07-16 04:32:30 51°14.867 2°54.576 333 13.3 329 10.3
2007-07-16 04:32:35 51°14.882 2°54.561 332.8 13.4 328 10.4
2007-07-16 04:32:41 51°14.901 2°54.542 332.4 13.3 329 10.2
2007-07-16 04:32:46 51°14.917 2°54.527 332.4 13.3 329 10.2
2007-07-16 04:32:50 51°14.93 2°54.515 332.4 13.3 329 10.1
2007-07-16 04:32:55 51°14.946 2°54.5 332.4 13.3 330 9.9
2007-07-16 04:33:00 51°14.961 2°54.486 332.8 13.3 331 9.8
2007-07-16 04:33:06 51°14.981 2°54.469 333.2 13.3 331 9.5
2007-07-16 04:33:10 51°14.994 2°54.458 333.8 13.3 332 9.5
2007-07-16 04:33:15 51°15.01 2°54.443 334.1 13.2 331 9.4
2007-07-16 04:33:20 51°15.026 2°54.429 334 13.2 331 9.4
2007-07-16 04:33:25 51°15.042 2°54.415 333.8 13.2 331 9.3
2007-07-16 04:33:30 51°15.058 2°54.401 333.6 13.3 331 9.3
2007-07-16 04:33:35 51°15.074 2°54.387 333.8 13.3 331 9.2
2007-07-16 04:33:40 51°15.09 2°54.373 334.1 13.3 331 9.2
2007-07-16 04:33:46 51°15.109 2°54.355 333.8 13.2 330 9.2
2007-07-16 04:33:50 51°15.122 2°54.344 333.5 13.3 330 9.3
2007-07-16 04:33:55 51°15.138 2°54.328 332.9 13.3 329 9.5
2007-07-16 04:34:00 51°15.154 2°54.313 332.2 13.3 329 9.5
2007-07-16 04:34:06 51°15.173 2°54.295 331.9 13.3 329 9.5
2007-07-16 04:34:10 51°15.185 2°54.282 331.6 13.4 329 9.6
2007-07-16 04:34:15 51°15.201 2°54.267 331.7 13.3 329 9.6
2007-07-16 04:34:21 51°15.22 2°54.249 332 13.3 329 9.7
2007-07-16 04:34:26 51°15.236 2°54.234 332.2 13.4 330 9.8
2007-07-16 04:34:30 51°15.249 2°54.223 333.1 13.4 330 9.8
2007-07-16 04:34:35 51°15.265 2°54.208 333.8 13.4 331 9.9
2007-07-16 04:34:41 51°15.285 2°54.191 334.2 13.4 331 9.8
2007-07-16 04:34:46 51°15.301 2°54.177 334.5 13.4 331 10
2007-07-16 04:34:50 51°15.314 2°54.165 334.8 13.4 331 9.9
2007-07-16 04:34:55 51°15.33 2°54.15 335 13.4 331 10.1
2007-07-16 04:35:00 51°15.346 2°54.136 334.6 13.4 330 10.1
2007-07-16 04:35:06 51°15.365 2°54.118 334.3 13.4 330 10.2
2007-07-16 04:35:10 51°15.378 2°54.106 334.1 13.4 330 10.3
2007-07-16 04:35:15 51°15.394 2°54.091 333.8 13.4 330 10.3
2007-07-16 04:35:20 51°15.41 2°54.077 333.8 13.3 330 10.3
2007-07-16 04:35:26 51°15.429 2°54.059 333.9 13.3 330 10.5
2007-07-16 04:35:30 51°15.442 2°54.048 334.1 13.2 330 10.5
2007-07-16 04:35:35 51°15.458 2°54.033 333.9 13.2 330 10.6
2007-07-16 04:35:40 51°15.474 2°54.019 333.8 13.2 331 10.6
2007-07-16 04:35:45 51°15.49 2°54.004 334.1 13.1 331 10.6
2007-07-16 04:35:50 51°15.506 2°53.99 334.4 13.1 331 10.8
2007-07-16 04:35:55 51°15.522 2°53.976 334.4 13.1 330 10.9
2007-07-16 04:36:00 51°15.537 2°53.961 334.5 13.1 330 10.9
2007-07-16 04:36:06 51°15.556 2°53.944 334 13.1 330 10.9
2007-07-16 04:36:10 51°15.569 2°53.933 333.8 13.1 331 11
2007-07-16 04:36:15 51°15.584 2°53.918 333.8 13.1 331 11
2007-07-16 04:36:20 51°15.6 2°53.904 334.3 13 331 11.1
2007-07-16 04:36:25 51°15.616 2°53.89 334.4 13 330 11.1
2007-07-16 04:36:30 51°15.632 2°53.876 334.4 13 330 11.1
2007-07-16 04:36:35 51°15.647 2°53.861 334 13 330 11.2
2007-07-16 04:36:41 51°15.666 2°53.844 333.7 13 330 11.3
2007-07-16 04:36:46 51°15.682 2°53.83 333.8 13 330 11.3
2007-07-16 04:36:50 51°15.694 2°53.819 334 13 331 11.3
2007-07-16 04:36:55 51°15.71 2°53.805 334.3 13 331 11.4
2007-07-16 04:37:01 51°15.729 2°53.788 334.3 13 331 11.4
2007-07-16 04:37:06 51°15.745 2°53.774 334.6 13 330 11.5
2007-07-16 04:37:10 51°15.757 2°53.763 334.5 13 331 11.4
2007-07-16 04:37:15 51°15.773 2°53.748 334.3 13 330 11.5
2007-07-16 04:37:20 51°15.788 2°53.734 333.9 13 330 11.6
2007-07-16 04:37:26 51°15.807 2°53.716 333.7 13 330 11.5
2007-07-16 04:37:30 51°15.819 2°53.705 333.8 13 330 11.6
2007-07-16 04:37:35 51°15.835 2°53.69 333.7 13 330 11.7
2007-07-16 04:37:40 51°15.851 2°53.676 333.6 13 330 11.7
2007-07-16 04:37:46 51°15.869 2°53.659 333.8 13 330 11.7
2007-07-16 04:37:50 51°15.882 2°53.648 334 13 330 11.8
2007-07-16 04:37:55 51°15.897 2°53.633 334.3 13 330 11.8
2007-07-16 04:38:00 51°15.913 2°53.619 334.2 13 331 11.8
2007-07-16 04:38:06 51°15.932 2°53.603 334.5 13 331 11.9
2007-07-16 04:38:10 51°15.945 2°53.591 334.4 13.1 331 11.9
2007-07-16 04:38:15 51°15.961 2°53.577 334.5 13.1 331 12
2007-07-16 04:38:20 51°15.977 2°53.563 334.4 13.1 330 12
2007-07-16 04:38:25 51°15.992 2°53.549 334.3 13.1 331 12.1
2007-07-16 04:38:30 51°16.008 2°53.535 334.2 13.1 330 12
2007-07-16 04:38:35 51°16.024 2°53.52 334.2 13.1 330 12
2007-07-16 04:38:41 51°16.043 2°53.503 334 13.1 330 12.1
2007-07-16 04:38:46 51°16.059 2°53.489 334 13.1 331 12.1
2007-07-16 04:38:50 51°16.071 2°53.478 333.8 13.1 331 12.1
2007-07-16 04:38:55 51°16.087 2°53.464 334.5 13.1 331 12.1
2007-07-16 04:39:01 51°16.106 2°53.447 334.4 13.1 331 12.2
2007-07-16 04:39:06 51°16.122 2°53.433 334.3 13.1 331 12.2
2007-07-16 04:39:10 51°16.135 2°53.422 334.5 13.1 331 12.3
2007-07-16 04:39:15 51°16.151 2°53.408 334.8 13.1 331 12.3
2007-07-16 04:39:20 51°16.167 2°53.394 334.5 13.1 331 12.3
2007-07-16 04:39:26 51°16.186 2°53.377 334.5 13.1 331 12.3
2007-07-16 04:39:30 51°16.199 2°53.366 334.1 13.1 332 12.3
2007-07-16 04:39:35 51°16.215 2°53.352 334.3 13.2 331 12.3
2007-07-16 04:39:40 51°16.231 2°53.338 334.5 13.1 332 12.3
2007-07-16 04:39:46 51°16.25 2°53.321 334.4 13.2 331 12.4
2007-07-16 04:39:50 51°16.263 2°53.31 334.4 13.2 332 12.5
2007-07-16 04:39:55 51°16.279 2°53.296 334.6 13.1 331 12.5
2007-07-16 04:40:00 51°16.295 2°53.282 334.5 13.1 330 12.4
2007-07-16 04:40:05 51°16.311 2°53.268 333.9 13.1 331 12.5
2007-07-16 04:40:10 51°16.327 2°53.255 333.9 13.1 333 12.5
2007-07-16 04:40:15 51°16.343 2°53.242 335.4 13.1 334 12.4
2007-07-16 04:40:20 51°16.36 2°53.229 336.7 13.1 335 12.5
2007-07-16 04:40:25 51°16.376 2°53.217 337.6 13.1 335 12.5
2007-07-16 04:40:30 51°16.393 2°53.205 338 13.1 336 12.5
2007-07-16 04:40:35 51°16.409 2°53.193 338.5 13.1 336 12.5
2007-07-16 04:40:40 51°16.426 2°53.181 338.9 13.1 336 12.5
2007-07-16 04:40:45 51°16.443 2°53.169 339 13.1 335 12.5
2007-07-16 04:40:50 51°16.459 2°53.157 338.6 13.1 336 12.5
2007-07-16 04:40:55 51°16.476 2°53.145 338.5 13.1 335 12.4
2007-07-16 04:41:01 51°16.495 2°53.131 338.2 13.1 335 12.4
2007-07-16 04:41:06 51°16.512 2°53.119 338.1 13.1 336 12.3
2007-07-16 04:41:10 51°16.525 2°53.109 338.4 13.1 335 12.3
2007-07-16 04:41:15 51°16.542 2°53.097 338.4 13.1 335 12.3
2007-07-16 04:41:20 51°16.558 2°53.085 338.2 13.1 335 12.2
2007-07-16 04:41:26 51°16.578 2°53.07 338 13.1 335 12.2
2007-07-16 04:41:30 51°16.591 2°53.06 337.8 13.1 335 12.2
2007-07-16 04:41:35 51°16.607 2°53.047 337.8 13.1 335 12.1
2007-07-16 04:41:41 51°16.627 2°53.033 337.8 13.1 336 12.1
2007-07-16 04:41:46 51°16.644 2°53.021 338.2 13.1 336 11.9
2007-07-16 04:41:50 51°16.657 2°53.012 338.9 13.1 336 11.9
2007-07-16 04:41:55 51°16.674 2°53 339.2 13.1 336 11.9
2007-07-16 04:42:00 51°16.69 2°52.988 339 13.1 335 11.9
2007-07-16 04:42:06 51°16.71 2°52.973 338.4 13.1 335 11.8
2007-07-16 04:42:10 51°16.724 2°52.964 338.2 13.2 336 11.7
2007-07-16 04:42:15 51°16.74 2°52.952 338.3 13.1 336 11.6
2007-07-16 04:42:20 51°16.757 2°52.94 338.5 13.1 336 11.4
2007-07-16 04:42:25 51°16.773 2°52.928 338.8 13.1 336 11.1
2007-07-16 04:42:30 51°16.79 2°52.916 338.3 13 335 10.9
2007-07-16 04:42:35 51°16.806 2°52.904 338.2 13 336 10.4
2007-07-16 04:42:40 51°16.822 2°52.892 338 13 335 10.1
2007-07-16 04:42:45 51°16.839 2°52.88 338 13 336 9.9
2007-07-16 04:42:50 51°16.855 2°52.868 338.2 13 335 9.9
2007-07-16 04:42:55 51°16.871 2°52.856 338.2 13 335 9.8
2007-07-16 04:43:01 51°16.891 2°52.84 338 13.1 334 9.8
2007-07-16 04:43:06 51°16.907 2°52.828 337.5 13.1 335 9.7
2007-07-16 04:43:10 51°16.921 2°52.818 337.5 13.1 335 10
2007-07-16 04:43:15 51°16.937 2°52.806 337.6 13.1 335 9.9
2007-07-16 04:43:20 51°16.954 2°52.794 337.8 13.1 336 10
2007-07-16 04:43:26 51°16.974 2°52.779 337.8 13.2 335 10.1
2007-07-16 04:43:30 51°16.987 2°52.77 338.2 13.2 335 10.2
2007-07-16 04:43:35 51°17.004 2°52.758 338.2 13.2 335 10.2
2007-07-16 04:43:41 51°17.024 2°52.743 338.1 13.2 335 10.4
2007-07-16 04:43:46 51°17.04 2°52.73 338 13.2 335 10.6
2007-07-16 04:43:50 51°17.054 2°52.721 337.9 13.2 336 10.6
2007-07-16 04:43:55 51°17.07 2°52.708 338.2 13.2 335 10.7
2007-07-16 04:44:01 51°17.09 2°52.694 338.1 13.2 336 10.7
2007-07-16 04:44:06 51°17.107 2°52.681 338.2 13.2 335 10.5
2007-07-16 04:44:10 51°17.121 2°52.672 338.2 13.2 336 10.4
2007-07-16 04:44:15 51°17.137 2°52.66 338.6 13.2 336 10.2
2007-07-16 04:44:20 51°17.154 2°52.649 338.9 13.1 337 10.1
2007-07-16 04:44:25 51°17.171 2°52.637 339 13.2 336 10.2
2007-07-16 04:44:30 51°17.187 2°52.625 339.3 13.2 336 10.3
2007-07-16 04:44:35 51°17.204 2°52.613 338.8 13.2 335 10.3
2007-07-16 04:44:40 51°17.22 2°52.6 338.5 13.2 335 10.3
2007-07-16 04:44:45 51°17.237 2°52.588 337.9 13.3 335 10.4
2007-07-16 04:44:50 51°17.254 2°52.575 337.7 13.2 335 10.5
2007-07-16 04:44:55 51°17.27 2°52.563 337.5 13.2 335 10.5
2007-07-16 04:45:00 51°17.287 2°52.551 337.8 13.3 335 10.6
2007-07-16 04:45:05 51°17.304 2°52.538 337.9 13.2 335 10.6
2007-07-16 04:45:10 51°17.32 2°52.526 338.2 13.2 335 10.7
2007-07-16 04:45:15 51°17.337 2°52.514 338.2 13.3 336 10.7
2007-07-16 04:45:20 51°17.354 2°52.502 338.6 13.3 336 10.8
2007-07-16 04:45:26 51°17.374 2°52.488 339 13.3 336 10.8
2007-07-16 04:45:30 51°17.387 2°52.478 338.9 13.3 336 10.9
2007-07-16 04:45:35 51°17.404 2°52.466 338.6 13.3 335 10.9
2007-07-16 04:45:40 51°17.421 2°52.453 338.2 13.2 335 10.9
2007-07-16 04:45:46 51°17.441 2°52.438 338.1 13.3 334 10.9
2007-07-16 04:45:50 51°17.454 2°52.428 337.7 13.2 334 11
2007-07-16 04:45:55 51°17.47 2°52.416 337.4 13.2 334 11
2007-07-16 04:46:01 51°17.49 2°52.401 337.4 13.2 335 11
2007-07-16 04:46:06 51°17.507 2°52.388 337.4 13.2 335 11
2007-07-16 04:46:10 51°17.52 2°52.378 338.2 13.2 334 11.1
2007-07-16 04:46:15 51°17.536 2°52.366 337.8 13.2 335 11
2007-07-16 04:46:20 51°17.553 2°52.353 338 13.2 335 10.9
2007-07-16 04:46:25 51°17.57 2°52.341 338 13.2 335 11
2007-07-16 04:46:30 51°17.586 2°52.329 338.3 13.2 335 11
2007-07-16 04:46:34 51°17.6 2°52.319 338.2 13.2 335 11
2007-07-16 04:46:39 51°17.616 2°52.306 338 13.2 335 11
2007-07-16 04:46:44 51°17.633 2°52.294 338.1 13.2 335 10.9
2007-07-16 04:46:49 51°17.649 2°52.282 338.2 13.2 335 10.9
2007-07-16 04:46:54 51°17.666 2°52.27 338.3 13.2 335 10.9
2007-07-16 04:46:58 51°17.679 2°52.26 338.5 13.2 336 10.9
2007-07-16 04:47:03 51°17.696 2°52.248 338.6 13.2 335 11
2007-07-16 04:47:08 51°17.713 2°52.236 338.6 13.2 336 11
2007-07-16 04:47:13 51°17.729 2°52.223 338.9 13.2 335 10.9
2007-07-16 04:47:18 51°17.746 2°52.211 338.5 13.3 335 10.9
2007-07-16 04:47:23 51°17.762 2°52.198 338.2 13.2 335 10.9
2007-07-16 04:47:27 51°17.776 2°52.188 337.9 13.2 335 11
2007-07-16 04:47:33 51°17.796 2°52.173 338.2 13.3 335 11.1
2007-07-16 04:47:38 51°17.812 2°52.161 338.3 13.2 335 11.1
2007-07-16 04:47:42 51°17.826 2°52.151 337.9 13.2 335 11.1
2007-07-16 04:47:47 51°17.842 2°52.138 338 13.2 335 11.1
2007-07-16 04:47:52 51°17.859 2°52.126 338 13.2 335 10.9
2007-07-16 04:47:57 51°17.875 2°52.113 337.9 13.2 335 10.8
2007-07-16 04:48:02 51°17.892 2°52.101 337.7 13.2 334 11.1
2007-07-16 04:48:07 51°17.908 2°52.088 337.5 13.2 335 11.2
2007-07-16 04:48:12 51°17.925 2°52.076 337.7 13.3 335 11
2007-07-16 04:48:17 51°17.942 2°52.064 338.1 13.3 336 11
2007-07-16 04:48:22 51°17.958 2°52.051 338.5 13.3 335 11.1
2007-07-16 04:48:27 51°17.975 2°52.039 338.4 13.2 335 11.3
2007-07-16 04:48:32 51°17.992 2°52.026 338.2 13.2 335 11.1
2007-07-16 04:48:37 51°18.008 2°52.014 338.2 13.3 335 11.2
2007-07-16 04:48:42 51°18.025 2°52.002 338.4 13.3 336 11.3
2007-07-16 04:48:47 51°18.042 2°51.99 338.7 13.3 335 11.1
2007-07-16 04:48:52 51°18.059 2°51.977 338.5 13.3 335 11.4
2007-07-16 04:48:57 51°18.075 2°51.965 338.3 13.3 335 11.3
2007-07-16 04:49:02 51°18.092 2°51.953 338.5 13.3 335 11
2007-07-16 04:49:07 51°18.109 2°51.94 338.2 13.2 335 11.3
2007-07-16 04:49:12 51°18.125 2°51.928 338.1 13.3 335 11.2
2007-07-16 04:49:17 51°18.142 2°51.915 338.2 13.3 335 11.5
2007-07-16 04:49:22 51°18.159 2°51.903 338.4 13.3 336 11.2
2007-07-16 04:49:27 51°18.176 2°51.891 338.6 13.3 336 11.5
2007-07-16 04:49:32 51°18.192 2°51.879 338.7 13.3 335 11.4
2007-07-16 04:49:37 51°18.209 2°51.867 338.6 13.3 336 11.5
2007-07-16 04:49:42 51°18.226 2°51.855 338.9 13.3 336 11.7
2007-07-16 04:49:47 51°18.243 2°51.843 338.8 13.3 336 11.6
2007-07-16 04:49:52 51°18.26 2°51.831 338.9 13.3 335 12
2007-07-16 04:49:57 51°18.276 2°51.818 338.5 13.3 335 12.1
2007-07-16 04:50:02 51°18.293 2°51.806 338.1 13.3 335 12
2007-07-16 04:50:07 51°18.31 2°51.793 338.2 13.3 335 11.9
2007-07-16 04:50:12 51°18.327 2°51.781 338.2 13.3 335 12.4
2007-07-16 04:50:17 51°18.343 2°51.769 338.2 13.3 335 12.1
2007-07-16 04:50:22 51°18.36 2°51.756 338.3 13.3 335 12.2
2007-07-16 04:50:27 51°18.377 2°51.744 338.5 13.3 336 12.4
2007-07-16 04:50:32 51°18.394 2°51.732 338.5 13.3 336 12.5
2007-07-16 04:50:37 51°18.411 2°51.72 338.7 13.3 336 12.6
2007-07-16 04:50:42 51°18.428 2°51.708 338.9 13.3 335 12.7
2007-07-16 04:50:47 51°18.445 2°51.696 338.6 13.3 336 12.8
2007-07-16 04:50:52 51°18.462 2°51.683 338.5 13.3 336 12.9
2007-07-16 04:50:57 51°18.478 2°51.671 338.6 13.3 335 13
2007-07-16 04:51:02 51°18.495 2°51.659 338.6 13.3 336 13.2
2007-07-16 04:51:07 51°18.512 2°51.647 338.9 13.3 336 13.2
2007-07-16 04:51:12 51°18.529 2°51.635 338.9 13.4 336 13.4
2007-07-16 04:51:17 51°18.546 2°51.623 338.9 13.3 336 13.5
2007-07-16 04:51:22 51°18.563 2°51.611 338.9 13.3 336 13.6
2007-07-16 04:51:27 51°18.58 2°51.598 338.4 13.3 335 13.7
2007-07-16 04:51:32 51°18.597 2°51.586 338.2 13.3 335 13.7
2007-07-16 04:51:37 51°18.613 2°51.573 338 13.3 335 13.9
2007-07-16 04:51:42 51°18.63 2°51.561 338 13.3 336 14
2007-07-16 04:51:47 51°18.647 2°51.549 338.4 13.3 335 14
2007-07-16 04:51:52 51°18.664 2°51.537 338.6 13.3 336 14.1
2007-07-16 04:51:57 51°18.681 2°51.525 338.7 13.3 336 14.2
2007-07-16 04:52:02 51°18.698 2°51.513 338.5 13.3 335 14.3
2007-07-16 04:52:07 51°18.714 2°51.5 338.2 13.3 335 14.4
2007-07-16 04:52:12 51°18.731 2°51.488 338.2 13.3 335 14.4
2007-07-16 04:52:17 51°18.748 2°51.476 338.2 13.3 335 14.4
2007-07-16 04:52:22 51°18.765 2°51.464 338.3 13.3 336 14.6
2007-07-16 04:52:27 51°18.782 2°51.452 338.8 13.3 336 14.6
2007-07-16 04:52:32 51°18.798 2°51.44 338.5 13.3 336 14.7
2007-07-16 04:52:37 51°18.816 2°51.428 338.9 13.3 338 14.7
2007-07-16 04:52:42 51°18.833 2°51.419 341.4 13.3 340 14.9
2007-07-16 04:52:47 51°18.85 2°51.409 343 13.3 342 14.8
2007-07-16 04:52:52 51°18.868 2°51.4 344.6 13.3 343 15
2007-07-16 04:52:57 51°18.886 2°51.392 345.7 13.3 344 14.9
2007-07-16 04:53:02 51°18.904 2°51.384 346.8 13.3 344 15
2007-07-16 04:53:07 51°18.922 2°51.376 347.4 13.3 345 14.8
2007-07-16 04:53:12 51°18.939 2°51.369 348.1 13.3 345 14.7
2007-07-16 04:53:17 51°18.957 2°51.361 348.4 13.4 345 15
2007-07-16 04:53:22 51°18.976 2°51.353 348.2 13.4 345 15
2007-07-16 04:53:27 51°18.994 2°51.344 348.2 13.4 345 15.2
2007-07-16 04:53:32 51°19.012 2°51.336 348.1 13.4 345 15.1
2007-07-16 04:53:37 51°19.03 2°51.329 348.3 13.3 345 15.1
2007-07-16 04:53:42 51°19.048 2°51.322 348.5 13.3 346 14.9
2007-07-16 04:53:47 51°19.065 2°51.314 348.3 13.3 344 14.9
2007-07-16 04:53:52 51°19.083 2°51.306 348.1 13.3 345 15.1
2007-07-16 04:53:57 51°19.101 2°51.298 348 13.3 345 15.1
2007-07-16 04:54:02 51°19.119 2°51.29 348.1 13.3 345 15.3
2007-07-16 04:54:06 51°19.134 2°51.284 347.8 13.3 345 15.2
2007-07-16 04:54:12 51°19.155 2°51.274 348 13.3 344 15.4
2007-07-16 04:54:17 51°19.173 2°51.266 347.7 13.3 344 15.5
2007-07-16 04:54:22 51°19.191 2°51.257 347.1 13.3 343 15.5
2007-07-16 04:54:27 51°19.208 2°51.249 346.8 13.3 344 15.5
2007-07-16 04:54:32 51°19.226 2°51.24 346.4 13.3 343 15.5
2007-07-16 04:54:37 51°19.243 2°51.231 346.2 13.3 342 15.4
2007-07-16 04:54:42 51°19.261 2°51.222 345.8 13.3 342 15.6
2007-07-16 04:54:47 51°19.279 2°51.213 345.6 13.3 342 15.5
2007-07-16 04:54:52 51°19.296 2°51.204 345.7 13.4 342 15.5
2007-07-16 04:54:57 51°19.314 2°51.195 345.6 13.3 343 15.5
2007-07-16 04:55:02 51°19.332 2°51.186 345.7 13.3 342 15.4
2007-07-16 04:55:07 51°19.349 2°51.177 345.9 13.3 342 15.5
2007-07-16 04:55:12 51°19.367 2°51.168 345.9 13.3 342 15.4
2007-07-16 04:55:17 51°19.385 2°51.159 345.8 13.3 342 15.3
2007-07-16 04:55:22 51°19.402 2°51.15 345.6 13.3 342 15.3
2007-07-16 04:55:27 51°19.42 2°51.14 345.4 13.3 342 15.4
2007-07-16 04:55:32 51°19.437 2°51.131 345.4 13.3 342 15.3
2007-07-16 04:55:37 51°19.455 2°51.123 345.4 13.3 342 15.3
2007-07-16 04:55:42 51°19.472 2°51.114 345.5 13.3 342 15.2
2007-07-16 04:55:47 51°19.49 2°51.106 345.9 13.3 342 15.3
2007-07-16 04:55:52 51°19.507 2°51.097 345.8 13.3 342 15.1
2007-07-16 04:55:57 51°19.525 2°51.088 345.5 13.3 343 14.9
2007-07-16 04:56:02 51°19.542 2°51.078 345.8 13.3 342 14.8
2007-07-16 04:56:07 51°19.56 2°51.07 345.6 13.3 343 14.7
2007-07-16 04:56:12 51°19.578 2°51.061 345.7 13.3 342 14.4
2007-07-16 04:56:17 51°19.595 2°51.052 345.7 13.3 342 14.1
2007-07-16 04:56:22 51°19.612 2°51.042 345.4 13.3 341 14
2007-07-16 04:56:27 51°19.63 2°51.033 345.4 13.3 342 13.8
2007-07-16 04:56:32 51°19.647 2°51.024 345.4 13.3 342 13.6
2007-07-16 04:56:37 51°19.665 2°51.015 345.4 13.3 342 13.4
2007-07-16 04:56:42 51°19.683 2°51.006 345.4 13.3 343 13
2007-07-16 04:56:47 51°19.7 2°50.997 345.8 13.3 342 13.1
2007-07-16 04:56:52 51°19.718 2°50.988 345.7 13.3 342 13
2007-07-16 04:56:57 51°19.735 2°50.978 345.7 13.3 342 13.1
2007-07-16 04:57:02 51°19.753 2°50.969 345.7 13.3 342 12.7
2007-07-16 04:57:07 51°19.77 2°50.96 345.7 13.3 342 12.8
2007-07-16 04:57:12 51°19.788 2°50.95 345.4 13.4 341 12.6
2007-07-16 04:57:17 51°19.806 2°50.941 345.4 13.3 342 12.5
2007-07-16 04:57:22 51°19.823 2°50.932 345.8 13.3 342 12.3
2007-07-16 04:57:27 51°19.841 2°50.922 345.6 13.4 341 12.8
2007-07-16 04:57:32 51°19.858 2°50.913 345.4 13.3 342 13
2007-07-16 04:57:37 51°19.876 2°50.904 345.5 13.4 342 13
2007-07-16 04:57:42 51°19.894 2°50.894 345.3 13.3 341 13
2007-07-16 04:57:47 51°19.911 2°50.885 345.1 13.4 341 13.3
2007-07-16 04:57:52 51°19.929 2°50.875 345 13.4 341 13.3
2007-07-16 04:57:57 51°19.946 2°50.865 345 13.3 341 13.3
2007-07-16 04:58:02 51°19.964 2°50.856 345 13.4 341 13.3
2007-07-16 04:58:07 51°19.981 2°50.846 345.4 13.3 342 13.6
2007-07-16 04:58:12 51°19.999 2°50.837 346 13.3 342 13.8
2007-07-16 04:58:17 51°20.016 2°50.828 346.2 13.3 342 13.7
2007-07-16 04:58:22 51°20.034 2°50.819 345.7 13.3 341 13.7
2007-07-16 04:58:27 51°20.052 2°50.81 345.5 13.3 342 13.7
2007-07-16 04:58:32 51°20.069 2°50.8 345.4 13.3 341 13.8
2007-07-16 04:58:37 51°20.087 2°50.79 345.4 13.3 341 13.7
2007-07-16 04:58:42 51°20.104 2°50.781 345.4 13.3 341 14
2007-07-16 04:58:47 51°20.122 2°50.772 345.4 13.3 342 14
2007-07-16 04:58:52 51°20.139 2°50.762 346.1 13.3 342 14.6
2007-07-16 04:58:57 51°20.157 2°50.753 346.2 13.4 342 14.9
2007-07-16 04:59:02 51°20.174 2°50.743 345.5 13.3 341 15.3
2007-07-16 04:59:07 51°20.192 2°50.734 345.4 13.3 342 15.2
2007-07-16 04:59:12 51°20.209 2°50.724 345.5 13.4 340 15.4
2007-07-16 04:59:17 51°20.227 2°50.715 344.9 13.4 342 15.5
2007-07-16 04:59:22 51°20.244 2°50.706 345.4 13.4 341 15.6
2007-07-16 04:59:27 51°20.262 2°50.697 345.6 13.3 342 15.8
2007-07-16 04:59:32 51°20.28 2°50.687 345.9 13.3 341 15.9
2007-07-16 04:59:37 51°20.297 2°50.678 345.8 13.3 342 16.1
2007-07-16 04:59:42 51°20.315 2°50.669 345.7 13.3 341 16.2
2007-07-16 04:59:47 51°20.332 2°50.659 345.7 13.4 342 16.4
2007-07-16 04:59:52 51°20.35 2°50.65 345.7 13.4 342 16.4
2007-07-16 04:59:57 51°20.367 2°50.64 345.4 13.4 341 16.6
2007-07-16 05:00:02 51°20.385 2°50.631 345.4 13.4 341 16.8
2007-07-16 05:00:07 51°20.403 2°50.622 345.4 13.4 342 17
2007-07-16 05:00:12 51°20.42 2°50.613 345.5 13.4 342 17.2
2007-07-16 05:00:17 51°20.438 2°50.603 345.2 13.4 342 17.4
2007-07-16 05:00:22 51°20.455 2°50.594 345.4 13.4 342 17.6
2007-07-16 05:00:27 51°20.473 2°50.585 345.5 13.4 342 17.9
2007-07-16 05:00:32 51°20.491 2°50.576 345.4 13.4 342 18.1
2007-07-16 05:00:37 51°20.508 2°50.567 345.7 13.4 342 18.3
2007-07-16 05:00:42 51°20.526 2°50.558 345.8 13.4 342 18.6
2007-07-16 05:00:47 51°20.544 2°50.549 346.1 13.4 342 18.9
2007-07-16 05:00:52 51°20.562 2°50.54 346.1 13.4 342 19.1
2007-07-16 05:00:57 51°20.579 2°50.531 346 13.4 342 19.3
2007-07-16 05:01:02 51°20.597 2°50.522 345.4 13.4 342 19.6
2007-07-16 05:01:07 51°20.615 2°50.513 345.5 13.4 343 19.8
2007-07-16 05:01:12 51°20.632 2°50.504 346 13.4 342 20
2007-07-16 05:01:17 51°20.65 2°50.495 345.7 13.4 343 20.3
2007-07-16 05:01:22 51°20.668 2°50.485 345.7 13.3 342 20.4
2007-07-16 05:01:27 51°20.685 2°50.477 345.4 13.3 343 20.7
2007-07-16 05:01:32 51°20.703 2°50.468 345.7 13.4 343 21.1
2007-07-16 05:01:37 51°20.721 2°50.459 345.7 13.4 342 21.3
2007-07-16 05:01:42 51°20.738 2°50.45 345.5 13.3 342 21.5
2007-07-16 05:01:47 51°20.756 2°50.441 345.5 13.3 343 21.6
2007-07-16 05:01:52 51°20.773 2°50.433 346 13.3 342 21.7
2007-07-16 05:01:57 51°20.791 2°50.424 345.8 13.3 343 22
2007-07-16 05:02:02 51°20.809 2°50.415 345.4 13.3 342 22.2
2007-07-16 05:02:07 51°20.826 2°50.405 345.3 13.3 342 22.5
2007-07-16 05:02:12 51°20.844 2°50.397 345.4 13.4 343 22.6
2007-07-16 05:02:17 51°20.862 2°50.388 345.8 13.4 342 22.8
2007-07-16 05:02:22 51°20.879 2°50.379 345.6 13.4 343 23
2007-07-16 05:02:27 51°20.897 2°50.37 345.6 13.4 342 23
2007-07-16 05:02:32 51°20.915 2°50.361 345.4 13.4 343 23.3
2007-07-16 05:02:37 51°20.932 2°50.352 345.5 13.4 342 23.1
2007-07-16 05:02:42 51°20.95 2°50.343 345.4 13.4 343 23.3
2007-07-16 05:02:47 51°20.968 2°50.334 345.5 13.4 342 23.5
2007-07-16 05:02:52 51°20.985 2°50.325 345.4 13.3 342 23.4
2007-07-16 05:02:57 51°21.003 2°50.316 344.8 13.4 342 23.4
2007-07-16 05:03:02 51°21.021 2°50.307 345 13.4 342 23.4
2007-07-16 05:03:07 51°21.038 2°50.298 345.1 13.4 342 23.3
2007-07-16 05:03:12 51°21.056 2°50.289 345.2 13.4 342 23.5
2007-07-16 05:03:17 51°21.074 2°50.28 345.1 13.3 342 23.4
2007-07-16 05:03:22 51°21.091 2°50.271 345.2 13.2 342 23.5
2007-07-16 05:03:27 51°21.108 2°50.263 345.2 13.1 342 23.5
2007-07-16 05:03:32 51°21.126 2°50.253 345.3 13.2 342 23.4
2007-07-16 05:03:37 51°21.144 2°50.244 345.4 13.2 342 23.5
2007-07-16 05:03:42 51°21.162 2°50.236 345.7 13.3 343 23.6
2007-07-16 05:03:47 51°21.18 2°50.227 345.5 13.3 342 23.4
2007-07-16 05:03:52 51°21.197 2°50.218 345.3 13.3 342 23.4
2007-07-16 05:03:57 51°21.215 2°50.209 345.3 13.3 342 23.5
2007-07-16 05:04:02 51°21.233 2°50.201 345.6 13.3 343 23.3
2007-07-16 05:04:07 51°21.25 2°50.191 345.4 13.3 342 23.2
2007-07-16 05:04:12 51°21.268 2°50.182 345.2 13.3 342 23.3
2007-07-16 05:04:17 51°21.285 2°50.173 345 13.3 341 23.2
2007-07-16 05:04:22 51°21.303 2°50.164 344.9 13.3 343 23.3
2007-07-16 05:04:27 51°21.32 2°50.155 345.2 13.3 342 23.1
2007-07-16 05:04:32 51°21.338 2°50.146 345.5 13.3 343 23.1
2007-07-16 05:04:37 51°21.355 2°50.137 345.7 13.3 342 22.9
2007-07-16 05:04:42 51°21.373 2°50.128 345.4 13.3 342 22.8
2007-07-16 05:04:47 51°21.391 2°50.119 345.4 13.3 343 22.8
2007-07-16 05:04:52 51°21.408 2°50.111 345.4 13.4 343 22.8
2007-07-16 05:04:57 51°21.426 2°50.102 345.4 13.4 343 22.8
2007-07-16 05:05:02 51°21.444 2°50.093 345.5 13.4 343 22.7
2007-07-16 05:05:07 51°21.462 2°50.084 345.5 13.4 343 22.6
2007-07-16 05:05:12 51°21.479 2°50.075 345.4 13.4 342 22.6
2007-07-16 05:05:17 51°21.497 2°50.066 345 13.4 342 22.5
2007-07-16 05:05:22 51°21.514 2°50.057 344.7 13.4 342 22.4
2007-07-16 05:05:27 51°21.532 2°50.048 344.8 13.4 342 22.4
2007-07-16 05:05:32 51°21.55 2°50.039 345.5 13.4 343 22.4
2007-07-16 05:05:37 51°21.567 2°50.03 345.4 13.4 342 22.2
2007-07-16 05:05:42 51°21.585 2°50.021 345.4 13.4 342 22.2
2007-07-16 05:05:47 51°21.603 2°50.011 345.3 13.4 342 22.2
2007-07-16 05:05:52 51°21.621 2°50.002 345.1 13.4 342 22.2
2007-07-16 05:05:57 51°21.638 2°49.994 345.4 13.4 343 22
2007-07-16 05:06:02 51°21.656 2°49.985 345.7 13.3 342 22.1
2007-07-16 05:06:07 51°21.673 2°49.976 345.8 13.3 342 22.2
2007-07-16 05:06:12 51°21.691 2°49.966 345.7 13.4 341 22.2
2007-07-16 05:06:17 51°21.709 2°49.957 345.4 13.4 342 22.4
2007-07-16 05:06:22 51°21.726 2°49.948 345 13.4 341 22.5
2007-07-16 05:06:27 51°21.744 2°49.938 344.6 13.3 341 22.5
2007-07-16 05:06:32 51°21.761 2°49.929 344.7 13.3 341 22.4
2007-07-16 05:06:37 51°21.779 2°49.919 344.9 13.4 341 22.6
2007-07-16 05:06:42 51°21.797 2°49.91 344.7 13.3 341 22.6
2007-07-16 05:06:47 51°21.814 2°49.9 344.6 13.3 341 22.9
2007-07-16 05:06:52 51°21.831 2°49.891 344.7 13.3 341 22.8
2007-07-16 05:06:57 51°21.849 2°49.881 344.7 13.3 341 22.8
2007-07-16 05:07:02 51°21.866 2°49.872 344.4 13.3 341 23.1
2007-07-16 05:07:07 51°21.884 2°49.862 344.7 13.3 341 23.2
2007-07-16 05:07:12 51°21.901 2°49.852 344.6 13.3 341 23.1
2007-07-16 05:07:17 51°21.919 2°49.843 344.6 13.2 341 23.1
2007-07-16 05:07:22 51°21.936 2°49.833 344.7 13.3 341 23.2
2007-07-16 05:07:27 51°21.954 2°49.825 345.2 13.3 343 23.3
2007-07-16 05:07:32 51°21.971 2°49.815 345.6 13.3 342 23.3
2007-07-16 05:07:37 51°21.989 2°49.806 345.8 13.3 342 23.3
2007-07-16 05:07:42 51°22.006 2°49.797 345.8 13.3 342 23.4
2007-07-16 05:07:47 51°22.024 2°49.788 345.4 13.3 341 23.3
2007-07-16 05:07:52 51°22.041 2°49.779 345.3 13.3 342 23.4
2007-07-16 05:07:57 51°22.059 2°49.769 345.4 13.3 342 23.5
2007-07-16 05:08:02 51°22.076 2°49.76 345.5 13.4 342 23.5
2007-07-16 05:08:06 51°22.091 2°49.753 345.5 13.4 342 23.5
2007-07-16 05:08:12 51°22.112 2°49.741 345.4 13.3 341 23.5
2007-07-16 05:08:17 51°22.129 2°49.733 345.4 13.3 342 23.6
2007-07-16 05:08:22 51°22.147 2°49.723 345.6 13.4 342 23.7
2007-07-16 05:08:27 51°22.164 2°49.714 345.8 13.3 342 23.8
2007-07-16 05:08:32 51°22.182 2°49.705 345.9 13.3 342 23.7
2007-07-16 05:08:37 51°22.2 2°49.697 345.8 13.3 343 23.6
2007-07-16 05:08:42 51°22.217 2°49.687 345.9 13.3 342 23.3
2007-07-16 05:08:47 51°22.235 2°49.678 345.9 13.3 342 23.3
2007-07-16 05:08:52 51°22.252 2°49.669 345.5 13.3 343 23.2
2007-07-16 05:08:57 51°22.27 2°49.66 345.8 13.3 341 22.8
2007-07-16 05:09:02 51°22.288 2°49.65 345.3 13.3 342 23.1
2007-07-16 05:09:07 51°22.305 2°49.641 345.1 13.4 341 22.3
2007-07-16 05:09:12 51°22.323 2°49.632 345.3 13.3 342 22
2007-07-16 05:09:17 51°22.34 2°49.622 345.4 13.4 341 21.5
2007-07-16 05:09:22 51°22.358 2°49.613 345.3 13.3 342 21.3
2007-07-16 05:09:27 51°22.376 2°49.604 345.5 13.3 342 22.4
2007-07-16 05:09:32 51°22.393 2°49.595 345.6 13.3 341 22.9
2007-07-16 05:09:37 51°22.411 2°49.586 345.3 13.3 343 23
2007-07-16 05:09:42 51°22.428 2°49.577 345.7 13.3 342 22.1
2007-07-16 05:09:47 51°22.446 2°49.567 345.4 13.3 342 21.6
2007-07-16 05:09:52 51°22.463 2°49.558 345.5 13.3 341 21.4
2007-07-16 05:09:57 51°22.481 2°49.548 345.3 13.3 342 20.8
2007-07-16 05:10:02 51°22.498 2°49.539 345.2 13.3 342 21.8
2007-07-16 05:10:07 51°22.516 2°49.53 345.5 13.4 342 21.2
2007-07-16 05:10:12 51°22.534 2°49.521 346.1 13.3 342 20.3
2007-07-16 05:10:17 51°22.551 2°49.512 345.5 13.3 342 19.9
2007-07-16 05:10:22 51°22.569 2°49.503 345.6 13.3 342 19.4
2007-07-16 05:10:27 51°22.587 2°49.494 345.7 13.4 342 19.1
2007-07-16 05:10:32 51°22.604 2°49.485 345.9 13.3 342 18.2
2007-07-16 05:10:37 51°22.622 2°49.475 345.7 13.3 342 17.8
2007-07-16 05:10:42 51°22.639 2°49.466 345.4 13.4 342 16.8
2007-07-16 05:10:46 51°22.653 2°49.459 345.4 13.3 342 16.3
2007-07-16 05:10:52 51°22.674 2°49.447 345.2 13.3 342 16
2007-07-16 05:10:57 51°22.692 2°49.438 345.5 13.4 341 15.3
2007-07-16 05:11:02 51°22.71 2°49.429 345.2 13.3 342 16.3
2007-07-16 05:11:07 51°22.727 2°49.42 345.4 13.3 342 16.8
2007-07-16 05:11:12 51°22.745 2°49.41 345.4 13.3 342 16.2
2007-07-16 05:11:17 51°22.763 2°49.401 345.6 13.3 341 15.8
2007-07-16 05:11:22 51°22.78 2°49.392 345.5 13.3 343 15.8
2007-07-16 05:11:27 51°22.798 2°49.383 345.4 13.4 341 15.2
2007-07-16 05:11:32 51°22.815 2°49.374 345.2 13.4 342 13.4
2007-07-16 05:11:37 51°22.833 2°49.364 345.3 13.4 341 14.9
2007-07-16 05:11:42 51°22.851 2°49.355 345.1 13.4 342 15.7
2007-07-16 05:11:47 51°22.869 2°49.346 345.4 13.4 342 15.6
2007-07-16 05:11:52 51°22.886 2°49.336 345.7 13.5 342 15
2007-07-16 05:11:57 51°22.904 2°49.327 345.7 13.4 341 16.6
2007-07-16 05:12:02 51°22.922 2°49.318 345.1 13.4 342 17
2007-07-16 05:12:07 51°22.939 2°49.308 345 13.4 341 16.7
2007-07-16 05:12:12 51°22.957 2°49.298 344.7 13.4 341 16.5
2007-07-16 05:12:17 51°22.975 2°49.288 344.4 13.4 341 16.8
2007-07-16 05:12:22 51°22.992 2°49.278 344.7 13.4 341 16
2007-07-16 05:12:27 51°23.01 2°49.269 344.6 13.4 342 14.7
2007-07-16 05:12:32 51°23.028 2°49.26 345.3 13.4 342 15.5
2007-07-16 05:12:37 51°23.045 2°49.251 345.4 13.4 342 15.9
2007-07-16 05:12:42 51°23.063 2°49.242 345.1 13.3 342 15.9
2007-07-16 05:12:47 51°23.08 2°49.233 345.5 13.3 341 17.1
2007-07-16 05:12:52 51°23.098 2°49.223 345.3 13.3 341 18.2
2007-07-16 05:12:57 51°23.115 2°49.214 345.4 13.4 342 19.1
2007-07-16 05:13:02 51°23.133 2°49.205 345.5 13.4 342 19.9
2007-07-16 05:13:07 51°23.151 2°49.196 346 13.4 343 20.1
2007-07-16 05:13:12 51°23.169 2°49.187 346.1 13.4 343 20.2
2007-07-16 05:13:17 51°23.186 2°49.178 346.2 13.4 342 20.1
2007-07-16 05:13:22 51°23.204 2°49.169 346.2 13.4 343 20.4
2007-07-16 05:13:27 51°23.222 2°49.16 346.1 13.4 342 20.6
2007-07-16 05:13:32 51°23.239 2°49.151 345.7 13.4 341 20.4
2007-07-16 05:13:37 51°23.257 2°49.141 345.1 13.3 341 20.2
2007-07-16 05:13:42 51°23.274 2°49.131 344.7 13.3 340 19.5
2007-07-16 05:13:47 51°23.292 2°49.122 344.4 13.4 341 18
2007-07-16 05:13:52 51°23.309 2°49.112 344.5 13.3 341 19.3
2007-07-16 05:13:57 51°23.327 2°49.103 344.9 13.4 342 20
2007-07-16 05:14:02 51°23.345 2°49.094 345.4 13.4 341 20.6
2007-07-16 05:14:07 51°23.362 2°49.084 345.5 13.3 341 21.2
2007-07-16 05:14:12 51°23.38 2°49.074 344.9 13.4 341 21.6
2007-07-16 05:14:17 51°23.397 2°49.065 344.8 13.4 341 21.8
2007-07-16 05:14:22 51°23.415 2°49.056 344.8 13.4 342 21.6
2007-07-16 05:14:27 51°23.433 2°49.046 345.1 13.4 342 21.7
2007-07-16 05:14:32 51°23.45 2°49.037 345.4 13.4 342 21
2007-07-16 05:14:37 51°23.468 2°49.028 345.7 13.4 342 19.9
2007-07-16 05:14:42 51°23.485 2°49.019 345.4 13.3 341 19.6
2007-07-16 05:14:47 51°23.503 2°49.009 344.8 13.4 341 20.5
2007-07-16 05:14:52 51°23.52 2°48.999 344.7 13.3 341 21.3
2007-07-16 05:14:57 51°23.538 2°48.99 344.6 13.3 341 21.4
2007-07-16 05:15:02 51°23.556 2°48.98 345 13.3 341 21.7
2007-07-16 05:15:07 51°23.573 2°48.971 345.2 13.3 342 22.3
2007-07-16 05:15:12 51°23.591 2°48.962 345.4 13.3 342 22.5
2007-07-16 05:15:17 51°23.608 2°48.953 346.1 13.4 342 22.4
2007-07-16 05:15:22 51°23.626 2°48.944 345.7 13.3 342 22.8
2007-07-16 05:15:27 51°23.644 2°48.935 345.6 13.4 342 22.5
2007-07-16 05:15:32 51°23.661 2°48.925 345.2 13.4 341 22.6
2007-07-16 05:15:37 51°23.679 2°48.915 344.4 13.3 341 22.6
2007-07-16 05:15:42 51°23.696 2°48.906 344.6 13.3 342 22.4
2007-07-16 05:15:47 51°23.714 2°48.897 345.1 13.3 341 22.2
2007-07-16 05:15:52 51°23.731 2°48.888 344.7 13.3 342 21.7
2007-07-16 05:15:57 51°23.749 2°48.878 344.8 13.3 341 20.9
2007-07-16 05:16:02 51°23.766 2°48.869 344.8 13.4 342 22.1
2007-07-16 05:16:07 51°23.784 2°48.86 345.6 13.4 343 22.2
2007-07-16 05:16:12 51°23.802 2°48.852 346.2 13.4 344 22.7
2007-07-16 05:16:17 51°23.82 2°48.844 347.6 13.4 345 22.6
2007-07-16 05:16:22 51°23.838 2°48.837 348.7 13.4 345 22.8
2007-07-16 05:16:27 51°23.856 2°48.83 349.2 13.3 346 22.9
2007-07-16 05:16:32 51°23.874 2°48.821 349.4 13.3 344 23.2
2007-07-16 05:16:37 51°23.892 2°48.814 348.9 13.3 345 23.3
2007-07-16 05:16:42 51°23.91 2°48.807 349.1 13.3 346 23.3
2007-07-16 05:16:47 51°23.927 2°48.8 349.3 13.3 346 22.4
2007-07-16 05:16:52 51°23.945 2°48.792 349.6 13.4 346 22.1
2007-07-16 05:16:57 51°23.963 2°48.785 349.8 13.4 346 22.9
2007-07-16 05:17:02 51°23.981 2°48.778 349.8 13.4 345 23.1
2007-07-16 05:17:07 51°23.999 2°48.771 349.4 13.4 346 23
2007-07-16 05:17:12 51°24.017 2°48.764 349.5 13.4 346 22.9
2007-07-16 05:17:17 51°24.035 2°48.756 349.7 13.4 346 22.3
2007-07-16 05:17:22 51°24.053 2°48.75 349.8 13.4 347 22.2
2007-07-16 05:17:27 51°24.072 2°48.742 350.3 13.4 346 21.9
2007-07-16 05:17:32 51°24.09 2°48.735 349.9 13.4 346 21.1
2007-07-16 05:17:37 51°24.108 2°48.728 349.8 13.4 346 21
2007-07-16 05:17:42 51°24.126 2°48.72 349.5 13.4 345 20.7
2007-07-16 05:17:47 51°24.144 2°48.713 349.6 13.4 346 20.2
2007-07-16 05:17:52 51°24.162 2°48.706 349.5 13.4 345 19
2007-07-16 05:17:57 51°24.18 2°48.699 349.2 13.4 346 19.7
2007-07-16 05:18:02 51°24.198 2°48.691 349.5 13.4 345 20.7
2007-07-16 05:18:07 51°24.216 2°48.684 349.4 13.4 345 21.4
2007-07-16 05:18:12 51°24.233 2°48.676 348.9 13.4 344 21.7
2007-07-16 05:18:17 51°24.251 2°48.668 348.6 13.4 344 22.2
2007-07-16 05:18:22 51°24.269 2°48.66 348.8 13.3 345 21.9
2007-07-16 05:18:27 51°24.287 2°48.653 349.1 13.4 346 22
2007-07-16 05:18:32 51°24.305 2°48.645 349.1 13.4 344 22.7
2007-07-16 05:18:37 51°24.323 2°48.638 349.1 13.4 346 22.5
2007-07-16 05:18:42 51°24.341 2°48.63 349 13.4 345 22.4
2007-07-16 05:18:47 51°24.359 2°48.622 349.5 13.3 345 22.5
2007-07-16 05:18:52 51°24.377 2°48.615 349.6 13.3 346 22
2007-07-16 05:18:57 51°24.395 2°48.607 349.7 13.4 345 22.5
2007-07-16 05:19:02 51°24.413 2°48.6 349.5 13.5 346 22.2
2007-07-16 05:19:06 51°24.427 2°48.594 349.2 13.5 345 22.3
2007-07-16 05:19:12 51°24.449 2°48.585 349.2 13.5 345 22.1
2007-07-16 05:19:17 51°24.467 2°48.577 349.2 13.5 345 22
2007-07-16 05:19:22 51°24.485 2°48.569 349.4 13.4 345 21.8
2007-07-16 05:19:27 51°24.503 2°48.562 349 13.4 345 22.1
2007-07-16 05:19:32 51°24.521 2°48.554 349.4 13.4 344 22.1
2007-07-16 05:19:37 51°24.539 2°48.546 349.1 13.4 345 22.6
2007-07-16 05:19:42 51°24.556 2°48.538 348.8 13.4 344 22.9
2007-07-16 05:19:47 51°24.574 2°48.531 349.1 13.4 345 23.3
2007-07-16 05:19:52 51°24.592 2°48.523 349.1 13.4 345 23.5
2007-07-16 05:19:57 51°24.61 2°48.516 349.6 13.4 347 24.1
2007-07-16 05:20:02 51°24.628 2°48.509 350.2 13.4 345 24.2
2007-07-16 05:20:07 51°24.647 2°48.503 351.1 13.4 349 24.3
2007-07-16 05:20:12 51°24.665 2°48.497 351.9 13.3 348 24.3
2007-07-16 05:20:17 51°24.683 2°48.492 353.2 13.3 352 24.7
2007-07-16 05:20:22 51°24.701 2°48.487 354.9 13.3 350 24.5
2007-07-16 05:20:27 51°24.72 2°48.483 355.1 13.3 352 24.8
2007-07-16 05:20:32 51°24.738 2°48.478 356 13.3 351 24.6
2007-07-16 05:20:37 51°24.756 2°48.474 355.6 13.3 352 24.3
2007-07-16 05:20:42 51°24.774 2°48.47 356 13.3 352 24.3
2007-07-16 05:20:47 51°24.793 2°48.466 355.9 13.3 352 24.4
2007-07-16 05:20:52 51°24.811 2°48.461 356 13.3 350 24.6
2007-07-16 05:20:57 51°24.829 2°48.456 355.4 13.3 351 24.4
2007-07-16 05:21:02 51°24.847 2°48.452 354.9 13.3 352 24.5
2007-07-16 05:21:07 51°24.866 2°48.447 355.7 13.3 351 25.4
2007-07-16 05:21:12 51°24.884 2°48.443 355.7 13.3 351 25.6
2007-07-16 05:21:17 51°24.902 2°48.438 355.5 13.3 351 26
2007-07-16 05:21:22 51°24.92 2°48.434 355.3 13.2 351 25.7
2007-07-16 05:21:27 51°24.938 2°48.43 355.8 13.2 352 25.9
2007-07-16 05:21:32 51°24.956 2°48.425 356.1 13.3 351 26.2
2007-07-16 05:21:37 51°24.975 2°48.42 355.7 13.3 350 26.1
2007-07-16 05:21:42 51°24.993 2°48.416 354.7 13.3 352 26.1
2007-07-16 05:21:47 51°25.011 2°48.411 355.6 13.3 351 26.4
2007-07-16 05:21:52 51°25.029 2°48.406 355.4 13.3 351 26.9
2007-07-16 05:21:57 51°25.047 2°48.402 355.4 13.3 350 27.6
2007-07-16 05:22:02 51°25.066 2°48.397 355.4 13.4 351 28.2
2007-07-16 05:22:07 51°25.084 2°48.393 355.5 13.3 351 28.4
2007-07-16 05:22:12 51°25.102 2°48.388 355.5 13.3 351 28.7
2007-07-16 05:22:17 51°25.12 2°48.384 356 13.2 351 28.9
2007-07-16 05:22:22 51°25.138 2°48.38 356.2 13.1 352 29.1
2007-07-16 05:22:27 51°25.156 2°48.376 356.9 13 352 29.3
2007-07-16 05:22:32 51°25.174 2°48.372 356.4 12.8 352 29.4
2007-07-16 05:22:37 51°25.191 2°48.367 356.2 12.6 351 29.5
2007-07-16 05:22:42 51°25.208 2°48.363 355.8 12.4 352 29.4
2007-07-16 05:22:47 51°25.225 2°48.359 356 12.2 351 29.4
2007-07-16 05:22:52 51°25.242 2°48.356 355.7 12.2 352 29.4
2007-07-16 05:22:57 51°25.258 2°48.351 355.7 12.2 351 29.4
2007-07-16 05:23:02 51°25.275 2°48.347 355.6 12.1 351 29.4
2007-07-16 05:23:07 51°25.291 2°48.343 355.2 12 351 29.2
2007-07-16 05:23:12 51°25.308 2°48.339 355 12 350 29.1
2007-07-16 05:23:17 51°25.324 2°48.335 355.3 12 352 28.9
2007-07-16 05:23:22 51°25.341 2°48.33 355.6 12 350 28.6
2007-07-16 05:23:27 51°25.357 2°48.326 355.2 12 351 28.6
2007-07-16 05:23:32 51°25.374 2°48.321 355.1 12 350 28.6
2007-07-16 05:23:37 51°25.39 2°48.317 354.9 12 350 28.5
2007-07-16 05:23:42 51°25.407 2°48.313 354.6 12 351 28.4
2007-07-16 05:23:47 51°25.423 2°48.309 355.3 12 352 28.1
2007-07-16 05:23:52 51°25.44 2°48.305 355.4 12 351 27.8
2007-07-16 05:23:57 51°25.456 2°48.302 355.6 12 352 27.6
2007-07-16 05:24:02 51°25.473 2°48.298 356.3 12 352 27.2
2007-07-16 05:24:07 51°25.489 2°48.295 357 12 353 26.9
2007-07-16 05:24:12 51°25.506 2°48.291 357.2 12 353 26.1
2007-07-16 05:24:17 51°25.522 2°48.288 357.7 12 353 25.2
2007-07-16 05:24:22 51°25.539 2°48.285 357.9 12 353 24.5
2007-07-16 05:24:27 51°25.555 2°48.282 357.9 11.9 353 23.8
2007-07-16 05:24:32 51°25.571 2°48.279 358.2 11.7 353 23.7
2007-07-16 05:24:37 51°25.587 2°48.276 357.9 11.6 353 23.5
2007-07-16 05:24:42 51°25.603 2°48.273 357.8 11.5 354 23.7
2007-07-16 05:24:47 51°25.619 2°48.271 357.9 11.5 354 23.6
2007-07-16 05:24:52 51°25.635 2°48.272 0.1 11.3 2 23.7
2007-07-16 05:24:57 51°25.65 2°48.274 5.4 11.2 5 23.7
2007-07-16 05:25:02 51°25.665 2°48.279 11.5 11 12 23.6
2007-07-16 05:25:07 51°25.68 2°48.285 16.6 10.7 14 23.6
2007-07-16 05:25:12 51°25.693 2°48.292 20.8 10 18 23.6
2007-07-16 05:25:17 51°25.705 2°48.299 23.9 9.5 21 23.7
2007-07-16 05:25:22 51°25.717 2°48.306 27.2 9.1 20 23.7
2007-07-16 05:25:27 51°25.728 2°48.314 28.8 8.6 25 23.7
2007-07-16 05:25:32 51°25.739 2°48.321 29.7 8.3 21 23.6
2007-07-16 05:25:37 51°25.749 2°48.328 29.7 8 25 23.6
2007-07-16 05:25:42 51°25.759 2°48.335 30 7.8 22 23.6
2007-07-16 05:25:47 51°25.769 2°48.341 29.2 7.6 22 23.7
2007-07-16 05:25:52 51°25.778 2°48.347 27.9 7.4 20 23.6
2007-07-16 05:25:57 51°25.788 2°48.351 26.4 7.2 18 23.5
2007-07-16 05:26:02 51°25.797 2°48.356 24.6 6.9 17 23.4
2007-07-16 05:26:07 51°25.806 2°48.36 22.6 6.9 15 23.4
2007-07-16 05:26:12 51°25.815 2°48.363 20.4 6.7 14 23.5
2007-07-16 05:26:17 51°25.824 2°48.366 18.8 6.6 13 23.4
2007-07-16 05:26:22 51°25.833 2°48.37 17.9 6.5 12 23.6
2007-07-16 05:26:27 51°25.841 2°48.372 17.5 6.2 12 23.5
2007-07-16 05:26:32 51°25.849 2°48.375 17.5 6 12 23.5
2007-07-16 05:26:37 51°25.857 2°48.378 17.6 5.7 14 23.4
2007-07-16 05:26:42 51°25.865 2°48.381 19.3 5.5 15 23.5
2007-07-16 05:26:47 51°25.872 2°48.385 21.3 5.2 17 23.5
2007-07-16 05:26:52 51°25.878 2°48.389 24.6 5 20 23.6
2007-07-16 05:26:57 51°25.884 2°48.393 28.2 4.8 22 23.6
2007-07-16 05:27:02 51°25.89 2°48.397 32 4.6 27 23.5
2007-07-16 05:27:07 51°25.895 2°48.402 35.9 4.4 28 23.4
2007-07-16 05:27:12 51°25.9 2°48.407 39.1 4.3 33 23.4
2007-07-16 05:27:17 51°25.906 2°48.412 41.5 4.4 32 23.5
2007-07-16 05:27:22 51°25.911 2°48.418 43.2 4.5 35 23.5
2007-07-16 05:27:27 51°25.916 2°48.423 43.9 4.7 33 23.4
2007-07-16 05:27:32 51°25.922 2°48.429 43.7 4.9 34 23.5
2007-07-16 05:27:37 51°25.928 2°48.435 42.6 5 31 23.5
2007-07-16 05:27:42 51°25.934 2°48.441 41 5.1 31 23.6
2007-07-16 05:27:47 51°25.94 2°48.447 38.7 5.2 28 23.4
2007-07-16 05:27:52 51°25.947 2°48.452 35.8 5.3 27 23.4
2007-07-16 05:27:57 51°25.954 2°48.457 32.6 5.4 24 23.6
2007-07-16 05:28:02 51°25.961 2°48.462 30.5 5.5 24 23.4
2007-07-16 05:28:07 51°25.968 2°48.466 29.2 5.6 22 23.3
2007-07-16 05:28:12 51°25.975 2°48.471 28.8 5.5 23 23.3
2007-07-16 05:28:17 51°25.982 2°48.475 28.9 5.3 22 23.6
2007-07-16 05:28:22 51°25.988 2°48.48 30.2 5 25 23.4
2007-07-16 05:28:27 51°25.994 2°48.485 33.1 4.7 25 23.5
2007-07-16 05:28:32 51°26 2°48.489 35 4.6 27 23.4
2007-07-16 05:28:37 51°26.005 2°48.494 36.2 4.3 28 23.3
2007-07-16 05:28:42 51°26.009 2°48.498 37 3.8 28 23.2
2007-07-16 05:28:47 51°26.013 2°48.501 38.7 3.3 30 23.1
2007-07-16 05:28:52 51°26.017 2°48.505 42.3 2.9 31 23.3
2007-07-16 05:28:57 51°26.02 2°48.508 46.8 2.5 34 23.4
2007-07-16 05:29:02 51°26.022 2°48.51 51.3 2.1 31 22.8
2007-07-16 05:29:07 51°26.024 2°48.512 55.9 1.5 30 22.7
2007-07-16 05:29:12 51°26.026 2°48.513 60 1.1 16 22.4
2007-07-16 05:29:17 51°26.027 2°48.513 63.1 0.8 357 22.2
2007-07-16 05:29:22 51°26.028 2°48.512 65.9 0.7 344 22.1
2007-07-16 05:29:27 51°26.029 2°48.512 68.7 0.6 342 22.3
2007-07-16 05:29:32 51°26.03 2°48.511 71.2 0.7 345 22.4
2007-07-16 05:29:37 51°26.031 2°48.511 73.9 0.7 346 23
2007-07-16 05:29:42 51°26.032 2°48.51 76.2 0.7 347 23.2
2007-07-16 05:29:47 51°26.033 2°48.51 78.3 0.7 346 22.8
2007-07-16 05:29:52 51°26.034 2°48.51 80.5 0.8 347 23
2007-07-16 05:29:57 51°26.034 2°48.509 82.3 0.7 342 23.3
2007-07-16 05:30:02 51°26.036 2°48.509 84.1 0.8 342 23.1
2007-07-16 05:30:07 51°26.037 2°48.508 85.8 0.8 342 23.2
2007-07-16 05:30:12 51°26.037 2°48.508 87.5 0.7 342 23.2
2007-07-16 05:30:17 51°26.039 2°48.507 88.9 0.8 348 23.3
2007-07-16 05:30:22 51°26.04 2°48.507 90 0.7 348 23.3
2007-07-16 05:30:27 51°26.041 2°48.507 91.1 0.8 351 23.4
2007-07-16 05:30:32 51°26.042 2°48.507 92.1 0.8 348 23.4
2007-07-16 05:30:38 51°26.043 2°48.506 93.3 0.8 343 -999
2007-07-16 05:30:43 51°26.044 2°48.505 94.3 0.9 340 -999
2007-07-16 05:30:49 51°26.045 2°48.504 95.1 0.9 332 23.4
2007-07-16 05:30:54 51°26.047 2°48.503 95.8 1 329 23.4
2007-07-16 05:30:58 51°26.048 2°48.502 96.3 1 326 23.4
2007-07-16 05:31:03 51°26.049 2°48.501 96.8 1.1 327 23.4
2007-07-16 05:31:08 51°26.05 2°48.499 97.1 1.1 322 23.4
2007-07-16 05:31:13 51°26.051 2°48.498 97.2 1.1 321 23.4
2007-07-16 05:31:18 51°26.052 2°48.496 97.5 1.1 317 23.4
2007-07-16 05:31:23 51°26.053 2°48.494 97.5 1.1 321 5
2007-07-16 05:31:27 51°26.054 2°48.493 97.5 1.1 318 4.9
2007-07-16 05:31:32 51°26.055 2°48.491 97.3 1.1 319 5.2
2007-07-16 05:31:38 51°26.057 2°48.489 97.2 1.1 319 4.9
2007-07-16 05:31:42 51°26.058 2°48.488 97.2 1.1 320 5.1
2007-07-16 05:31:47 51°26.059 2°48.486 96.9 1.1 322 5.3
2007-07-16 05:31:52 51°26.06 2°48.485 96.8 1 317 4.8
2007-07-16 05:31:57 51°26.061 2°48.483 96.7 1.1 324 5
2007-07-16 05:32:02 51°26.062 2°48.482 96.4 1 324 4.8
2007-07-16 05:32:07 51°26.064 2°48.481 96.1 1 325 23.5
2007-07-16 05:32:12 51°26.065 2°48.48 95.8 1 326 23.5
2007-07-16 05:32:17 51°26.066 2°48.479 95.7 0.9 326 23.5
2007-07-16 05:32:22 51°26.067 2°48.477 95.5 0.9 328 23.6
2007-07-16 05:32:27 51°26.068 2°48.477 95.5 0.8 328 23.6
2007-07-16 05:32:32 51°26.069 2°48.476 95.5 0.8 333 23.6
2007-07-16 05:32:37 51°26.07 2°48.475 95.7 0.8 333 23.6
2007-07-16 05:32:42 51°26.071 2°48.474 96.1 0.7 335 23.5
2007-07-16 05:32:47 51°26.072 2°48.474 97 0.7 336 23.4
2007-07-16 05:32:52 51°26.073 2°48.473 97.9 0.6 340 23.4
2007-07-16 05:32:57 51°26.073 2°48.473 99.1 0.6 345 23.4
2007-07-16 05:33:02 51°26.074 2°48.473 100.7 0.5 349 23.4
2007-07-16 05:33:07 51°26.075 2°48.473 102.4 0.5 353 23.3
2007-07-16 05:33:12 51°26.076 2°48.473 104.4 0.5 2 23.2
2007-07-16 05:33:17 51°26.076 2°48.473 106.4 0.4 5 23.2
2007-07-16 05:33:22 51°26.077 2°48.473 108.7 0.5 7 23.1
2007-07-16 05:33:27 51°26.077 2°48.473 111 0.4 13 23.1
2007-07-16 05:33:32 51°26.078 2°48.473 113.3 0.4 19 23.1
2007-07-16 05:33:37 51°26.078 2°48.474 115.8 0.4 28 23
2007-07-16 05:33:42 51°26.079 2°48.474 118.1 0.4 28 23
2007-07-16 05:33:47 51°26.079 2°48.475 120.4 0.4 36 23.3
2007-07-16 05:33:52 51°26.079 2°48.475 122.4 0.4 40 23
2007-07-16 05:33:57 51°26.08 2°48.476 124.5 0.4 44 23.1
2007-07-16 05:34:02 51°26.08 2°48.477 127 0.4 53 22.9
2007-07-16 05:34:07 51°26.081 2°48.478 128.4 0.4 58 22.9
2007-07-16 05:34:12 51°26.081 2°48.479 130.1 0.4 62 22.8
2007-07-16 05:34:17 51°26.081 2°48.479 131.3 0.5 63 22.5
2007-07-16 05:34:22 51°26.081 2°48.48 133.1 0.5 73 22.4
2007-07-16 05:34:27 51°26.082 2°48.482 134.3 0.5 72 22.4
2007-07-16 05:34:32 51°26.082 2°48.483 135.4 0.5 76 22.3
2007-07-16 05:34:37 51°26.082 2°48.484 136.2 0.6 74 22.3
2007-07-16 05:34:42 51°26.082 2°48.485 137 0.5 82 22.2
2007-07-16 05:34:47 51°26.082 2°48.486 137.9 0.5 83 22.3
2007-07-16 05:34:52 51°26.082 2°48.487 138.8 0.5 84 22.5
2007-07-16 05:34:57 51°26.082 2°48.488 139.4 0.5 85 22.3
2007-07-16 05:35:02 51°26.082 2°48.49 140.4 0.6 87 22.1
2007-07-16 05:35:07 51°26.082 2°48.491 141.5 0.5 94 22
2007-07-16 05:35:12 51°26.082 2°48.492 142.6 0.5 91 22
2007-07-16 05:35:17 51°26.082 2°48.493 143.9 0.4 97 21.9
2007-07-16 05:35:22 51°26.082 2°48.494 144.9 0.5 92 21.8
2007-07-16 05:35:27 51°26.082 2°48.495 146.3 0.4 100 21.8
2007-07-16 05:35:32 51°26.082 2°48.496 147.8 0.5 88 21.8
2007-07-16 05:35:37 51°26.082 2°48.496 149.1 0.3 107 21.8
2007-07-16 05:35:42 51°26.082 2°48.498 150.4 0.4 90 21.8
2007-07-16 05:35:47 51°26.082 2°48.498 151.5 0.4 102 21.7
2007-07-16 05:35:52 51°26.082 2°48.499 152.6 0.4 98 21.8
2007-07-16 05:35:57 51°26.082 2°48.5 153.4 0.4 90 21.9
2007-07-16 05:36:02 51°26.082 2°48.501 154.2 0.3 97 21.8
2007-07-16 05:36:07 51°26.082 2°48.501 155.1 0.3 90 21.9
2007-07-16 05:36:12 51°26.082 2°48.502 155.6 0.3 100 21.9
2007-07-16 05:36:17 51°26.082 2°48.503 156 0.3 94 21.9
2007-07-16 05:36:22 51°26.082 2°48.503 156.6 0.3 98 21.8
2007-07-16 05:36:27 51°26.082 2°48.504 156.9 0.2 88 21.6
2007-07-16 05:36:32 51°26.082 2°48.504 157.3 0.2 94 21.7
2007-07-16 05:36:37 51°26.082 2°48.505 157.9 0.2 85 21.6
2007-07-16 05:36:42 51°26.082 2°48.505 158.4 0.2 100 21.7
2007-07-16 05:36:47 51°26.082 2°48.506 158.9 0.2 82 21.7
2007-07-16 05:36:52 51°26.082 2°48.506 159.4 0.2 85 21.7
2007-07-16 05:36:57 51°26.082 2°48.506 159.6 0.1 104 21.6
2007-07-16 05:37:02 51°26.082 2°48.507 160.4 0.2 93 21.6
2007-07-16 05:37:07 51°26.082 2°48.507 161 0.2 100 21.7
2007-07-16 05:37:12 51°26.082 2°48.507 161.7 0.1 92 21.6
2007-07-16 05:37:17 51°26.082 2°48.508 162.2 0.2 88 21.7
2007-07-16 05:37:22 51°26.082 2°48.508 162.5 0.2 90 21.8
2007-07-16 05:37:27 51°26.082 2°48.508 163 0.1 84 21.7
2007-07-16 05:37:32 51°26.082 2°48.509 163.3 0.2 79 21.7
2007-07-16 05:37:37 51°26.082 2°48.509 163.9 0.1 95 21.7
2007-07-16 05:37:42 51°26.082 2°48.509 164.7 0.2 75 21.7
2007-07-16 05:37:47 51°26.082 2°48.51 165.2 0.1 69 21.7
2007-07-16 05:37:52 51°26.082 2°48.51 165.7 0.1 80 21.7
2007-07-16 05:37:57 51°26.082 2°48.51 166.3 0.1 70 21.9
2007-07-16 05:38:02 51°26.082 2°48.51 166.8 0.1 68 21.7
2007-07-16 05:38:07 51°26.082 2°48.511 167 0.1 87 21.6
2007-07-16 05:38:12 51°26.082 2°48.511 167.5 0.1 91 21.6
2007-07-16 05:38:17 51°26.082 2°48.511 167.7 -999 63 21.5
2007-07-16 05:38:22 51°26.082 2°48.512 168.1 0.1 77 21.5
2007-07-16 05:38:27 51°26.082 2°48.512 168.7 0.1 113 21.6
2007-07-16 05:38:32 51°26.082 2°48.512 169.3 0.1 96 21.5
2007-07-16 05:38:37 51°26.082 2°48.512 169.9 0.1 115 21.5
2007-07-16 05:38:42 51°26.082 2°48.512 170.7 0.1 140 21.5
2007-07-16 05:38:47 51°26.082 2°48.512 171.2 -999 76 21.4
2007-07-16 05:38:52 51°26.082 2°48.512 172.1 -999 114 21.6
2007-07-16 05:38:57 51°26.082 2°48.512 172.9 0.1 148 21.6
2007-07-16 05:39:02 51°26.082 2°48.512 173.9 -999 182 21.5
2007-07-16 05:39:07 51°26.082 2°48.512 174.4 0.1 145 21.5
2007-07-16 05:39:12 51°26.082 2°48.512 175.1 -999 158 21.5
2007-07-16 05:39:17 51°26.082 2°48.512 175.6 -999 257 21.5
2007-07-16 05:39:22 51°26.081 2°48.512 176.3 0.1 208 21.6
2007-07-16 05:39:27 51°26.081 2°48.512 177.2 0.1 159 21.6
2007-07-16 05:39:32 51°26.081 2°48.512 178 -999 252 21.7
2007-07-16 05:39:37 51°26.081 2°48.512 178.6 -999 149 21.6
2007-07-16 05:39:42 51°26.081 2°48.512 179.3 0.1 267 21.6
2007-07-16 05:39:47 51°26.081 2°48.512 180 -999 216 21.6
2007-07-16 05:39:52 51°26.081 2°48.512 180.6 -999 296 21.6
2007-07-16 05:39:57 51°26.081 2°48.512 181 -999 203 21.6
2007-07-16 05:40:02 51°26.081 2°48.512 181.2 0.1 258 21.6
2007-07-16 05:40:07 51°26.081 2°48.512 181.5 0.1 161 21.7
2007-07-16 05:40:12 51°26.081 2°48.512 181.7 0.1 253 21.6
2007-07-16 05:40:17 51°26.081 2°48.512 182.1 0.1 236 21.6
2007-07-16 05:40:22 51°26.081 2°48.511 182.1 0.1 237 21.7
2007-07-16 05:40:27 51°26.081 2°48.512 182.5 -999 207 21.7